createdAt,value
2022-09-21T00:01:17.015Z,94.20
2022-09-21T00:16:22.081Z,94.30
2022-09-21T00:31:27.536Z,93.80
2022-09-21T00:46:32.300Z,94.10
2022-09-21T01:01:38.353Z,94.00
2022-09-21T01:16:50.204Z,94.30
2022-09-21T01:32:01.115Z,94.70
2022-09-21T01:47:10.037Z,95.30
2022-09-21T02:02:18.015Z,95.60
2022-09-21T02:17:37.059Z,95.70
2022-09-21T02:32:46.834Z,95.80
2022-09-21T02:47:56.512Z,96.30
2022-09-21T03:03:01.006Z,96.00
2022-09-21T03:18:05.991Z,97.00
2022-09-21T03:33:10.925Z,97.00
2022-09-21T03:48:15.367Z,97.60
2022-09-21T04:03:19.774Z,97.60
2022-09-21T04:18:24.163Z,97.50
2022-09-21T04:33:29.015Z,97.70
2022-09-21T04:48:33.581Z,97.60
2022-09-21T05:03:38.381Z,98.70
2022-09-21T05:18:42.913Z,98.20
2022-09-21T05:33:51.711Z,98.50
2022-09-21T05:49:01.048Z,99.50
2022-09-21T06:04:06.269Z,99.30
2022-09-21T06:19:14.689Z,99.40
2022-09-21T06:34:19.418Z,98.80
2022-09-21T06:49:23.881Z,98.80
2022-09-21T07:04:29.380Z,98.90
2022-09-21T07:19:33.785Z,98.10
2022-09-21T07:34:38.060Z,98.80
2022-09-21T07:49:42.800Z,98.70
2022-09-21T08:04:47.254Z,98.70
2022-09-21T08:19:51.750Z,98.40
2022-09-21T08:34:56.188Z,98.30
2022-09-21T08:50:04.159Z,97.80
2022-09-21T09:05:23.877Z,97.60
2022-09-21T09:20:33.728Z,97.80
2022-09-21T09:35:43.949Z,97.30
2022-09-21T09:50:48.664Z,97.30
2022-09-21T10:05:53.670Z,96.60
2022-09-21T10:21:01.310Z,95.00
2022-09-21T10:36:06.954Z,93.30
2022-09-21T10:51:27.256Z,91.20
2022-09-21T11:06:37.643Z,91.10
2022-09-21T11:21:52.981Z,89.30
2022-09-21T11:37:10.861Z,86.00
2022-09-21T11:52:28.193Z,84.00
2022-09-21T12:07:50.208Z,83.30
2022-09-21T12:23:00.221Z,80.60
2022-09-21T12:38:11.996Z,82.10
2022-09-21T12:53:25.156Z,78.00
2022-09-21T13:08:36.650Z,74.60
2022-09-21T13:23:42.339Z,74.80
2022-09-21T13:39:19.651Z,73.10
2022-09-21T13:54:27.665Z,71.10
2022-09-21T14:09:37.608Z,65.00
2022-09-21T14:24:43.951Z,59.60
2022-09-21T14:39:50.064Z,54.60
2022-09-21T14:55:05.271Z,49.70
2022-09-21T15:10:43.055Z,44.00
2022-09-21T15:25:58.729Z,44.60
2022-09-21T15:41:09.587Z,47.20
2022-09-21T15:56:22.223Z,48.20
2022-09-21T16:11:37.854Z,48.60
2022-09-21T16:26:43.931Z,48.30
2022-09-21T16:42:02.166Z,50.30
2022-09-21T16:57:07.687Z,51.10
2022-09-21T17:12:13.873Z,53.90
2022-09-21T17:27:19.914Z,55.30
2022-09-21T17:42:25.907Z,56.70
2022-09-21T17:57:45.761Z,57.10
2022-09-21T18:13:08.746Z,57.30
2022-09-21T18:28:18.237Z,60.00
2022-09-21T18:43:35.121Z,59.60
2022-09-21T18:58:40.408Z,61.20
2022-09-21T19:13:58.365Z,61.90
2022-09-21T19:29:28.626Z,63.00
2022-09-21T19:44:59.411Z,64.10
2022-09-21T20:00:06.723Z,65.70
2022-09-21T20:15:16.888Z,67.00
2022-09-21T20:30:24.361Z,67.90
2022-09-21T20:45:29.581Z,68.90
2022-09-21T21:00:34.238Z,69.90
2022-09-21T21:15:38.572Z,70.60
2022-09-21T21:30:43.465Z,71.70
2022-09-21T21:45:56.685Z,72.20
2022-09-21T22:01:13.736Z,72.50
2022-09-21T22:16:20.169Z,72.40
2022-09-21T22:31:27.302Z,72.60
2022-09-21T22:46:32.634Z,74.10
2022-09-21T23:01:38.670Z,74.20
2022-09-21T23:16:44.062Z,74.90
2022-09-21T23:31:48.894Z,75.90
2022-09-21T23:46:53.452Z,75.80
